Nearby METAR Reports

 

KBAX - Bad Axe, Michigan, USA
Distance from station: ESE 22mi, 35km
Updated: Sun, 27-May-2018 7:36am EDT
Mist, Clear
Mist, Clear
 Wind from SSE
Wind: SSE 3 mph , 6 km/h
Temperature: 66°F , 19°C
Dew Point: 66°F , 19°C
Humidity: 100%
Barometer: 29.89 inHg , 1012.2 hPa
Summary: Mist
Clouds: Clear
Visibility: 3 miles , 5 km
2018/05/27 11:36 KBAX 271136Z AUTO 15003KT 3SM BR CLR 19/19 A2989 RMK AO2 T01860185
KFNT - Flint, Michigan, USA
Distance from station: SSW 68mi, 109km
Updated: Sun, 27-May-2018 6:53am EDT
Shallow fog, Clear
Shallow fog, Clear
 Wind from calm
Wind: Calm
Temperature: 61°F , 16°C
Dew Point: 61°F , 16°C
Humidity: 100%
Barometer: 29.88 inHg , 1011.9 hPa
Summary: Shallow Fog
Clouds: Clear
Visibility: 7 miles , 11 km
2018/05/27 10:53 KFNT 271053Z 00000KT 7SM MIFG CLR 16/16 A2988 RMK AO2 SLP114 T01610156
KMBS - Saginaw, Michigan, USA
Distance from station: SW 44mi, 70km
Updated: Sun, 27-May-2018 7:15am EDT
Light rain, Mist, Mostly cloudy
Light rain, Mist, Mostly cloudy
 Wind from SW
Wind: SW 5 mph , 7 km/h
Temperature: 64°F , 18°C
Dew Point: 64°F , 18°C
Humidity: 100%
Barometer: 29.90 inHg , 1012.5 hPa
Summary: Light rain, Mist
Clouds: Mostly cloudy
Visibility: 1 1/2 miles , 2.4 km
Cloud details: Mostly cloudy 11000 ft
2018/05/27 11:15 KMBS 271115Z 22004KT 1 1/2SM -RA BR BKN110 18/18 A2990 RMK AO2 LTG DSNT NW RAB09 P0001 T01830178
 
KDTW - Detroit/Wayne, Michigan, USA
Distance from station: SSE 117mi, 188km
Updated: Sun, 27-May-2018 7:32am EDT
Fog, Overcast
Fog, Overcast
 Wind from W
Wind: W 3 mph , 6 km/h
Temperature: 68°F , 20°C
Dew Point: 64°F , 18°C
Humidity: 88%
Barometer: 29.90 inHg , 1012.5 hPa
Summary: Fog
Clouds: Overcast
Visibility: 1/4 mile , 0.4 km
Cloud details: Overcast 200 ft
2018/05/27 11:32 KDTW 271132Z 26003KT 1/4SM R03R/P6000FT FG OVC002 20/18 A2990 RMK AO2 T02000183
KP58 - Port Hope, Michigan, USA
Distance from station: ENE 30mi, 48km
Updated: Sun, 27-May-2018 6:51am EDT

 Wind from calm
Wind: Calm
Temperature: 63°F , 17°C
Dew Point: 61°F , 16°C
Humidity: 94%
Barometer: 29.85 inHg , 1010.8 hPa
2018/05/27 10:51 KP58 271051Z AUTO 00000KT 17/16 A2985 RMK AO1 SLP108 T01670156
KCFS - Caro/Tuscola, Michigan, USA
Distance from station: S 31mi, 50km
Updated: Sun, 27-May-2018 7:35am EDT
Mist, Clear
Mist, Clear
 Wind from calm
Wind: Calm
Temperature: 64°F , 18°C
Dew Point: 63°F , 17°C
Humidity: 94%
Barometer: 29.89 inHg , 1012.2 hPa
Summary: Mist
Clouds: Clear
Visibility: 5 miles , 8 km
2018/05/27 11:35 KCFS 271135Z AUTO 00000KT 5SM BR CLR 18/17 A2989 RMK AO2 T01800172
 
KPHN - Port Huron, Michigan, USA
Distance from station: SSE 81mi, 131km
Updated: Sun, 27-May-2018 7:36am EDT
Mist, Clear
Mist, Clear
 Wind from S
Wind: S 3 mph , 6 km/h
Temperature: 63°F , 17°C
Dew Point: 59°F , 15°C
Humidity: 88%
Barometer: 29.90 inHg , 1012.5 hPa
Summary: Mist
Clouds: Clear
Visibility: 2 1/2 miles , 4 km
2018/05/27 11:36 KPHN 271136Z AUTO 18003KT 2 1/2SM BR CLR 17/15 A2990 RMK AO2
KPTK - Pontiac, Michigan, USA
Distance from station: S 86mi, 138km
Updated: Sun, 27-May-2018 7:03am EDT
Fog, Overcast
Fog, Overcast
 Wind from calm
Wind: Calm
Temperature: 64°F , 18°C
Dew Point: 64°F , 18°C
Humidity: 100%
Barometer: 29.87 inHg , 1011.5 hPa
Summary: Fog
Clouds: Overcast
Visibility: 1/8 mile , 0.2 km
Cloud details: Overcast 200 ft
2018/05/27 11:03 KPTK 271103Z 00000KT 1/8SM R09R/P6000FT FG OVC002 18/18 A2987 RMK AO2 SFC VIS 1/2 T01830183 $
KMTC - Selfridge Angb, Michigan, USA
Distance from station: SSE 94mi, 151km
Updated: Sun, 27-May-2018 7:21am EDT
Mist, Partly cloudy
Mist, Partly cloudy
 Wind from calm
Wind: Calm
Temperature: 64°F , 18°C
Dew Point: 64°F , 18°C
Humidity: 100%
Barometer: 29.87 inHg , 1011.5 hPa
Summary: Mist
Clouds: Partly cloudy
Visibility: 2 miles , 3 km
Cloud details: Partly cloudy 100 ft
Partly cloudy 25000 ft
2018/05/27 11:21 KMTC 271121Z 00000KT 2SM R19/P6000FT BR SCT001 SCT250 18/18 A2987 RMK AO2A ALSTG ESTMD $